sensor_id;sensor_type;location;lat;lon;timestamp;pressure;altitude;pressure_sealevel;temperature;humidity
85266;BME280;75676;49.522;19.724;2024-02-26T00:01:49;92979.00;;;3.56;80.25
85266;BME280;75676;49.522;19.724;2024-02-26T00:04:15;92970.09;;;3.54;80.57
85266;BME280;75676;49.522;19.724;2024-02-26T00:06:41;92967.22;;;3.64;80.64
85266;BME280;75676;49.522;19.724;2024-02-26T00:09:07;92973.03;;;3.56;80.86
85266;BME280;75676;49.522;19.724;2024-02-26T00:11:35;92965.59;;;3.54;80.25
85266;BME280;75676;49.522;19.724;2024-02-26T00:14:00;92967.34;;;3.45;80.36
85266;BME280;75676;49.522;19.724;2024-02-26T00:16:26;92967.34;;;3.45;80.96
85266;BME280;75676;49.522;19.724;2024-02-26T00:18:52;92965.25;;;3.40;80.84
85266;BME280;75676;49.522;19.724;2024-02-26T00:21:18;92962.69;;;3.36;80.95
85266;BME280;75676;49.522;19.724;2024-02-26T00:23:44;92969.31;;;3.24;81.44
85266;BME280;75676;49.522;19.724;2024-02-26T00:26:09;92967.13;;;3.23;81.22
85266;BME280;75676;49.522;19.724;2024-02-26T00:28:36;92966.94;;;3.30;81.16
85266;BME280;75676;49.522;19.724;2024-02-26T00:31:02;92969.16;;;3.31;81.61
85266;BME280;75676;49.522;19.724;2024-02-26T00:33:28;92960.91;;;3.33;81.27
85266;BME280;75676;49.522;19.724;2024-02-26T00:35:54;92963.28;;;3.27;80.94
85266;BME280;75676;49.522;19.724;2024-02-26T00:38:20;92959.34;;;3.35;81.05
85266;BME280;75676;49.522;19.724;2024-02-26T00:40:46;92962.06;;;3.32;81.89
85266;BME280;75676;49.522;19.724;2024-02-26T00:43:12;92955.72;;;3.17;82.45
85266;BME280;75676;49.522;19.724;2024-02-26T00:45:38;92958.97;;;3.05;83.12
85266;BME280;75676;49.522;19.724;2024-02-26T00:48:04;92958.19;;;2.91;83.82
85266;BME280;75676;49.522;19.724;2024-02-26T00:50:31;92956.53;;;2.97;83.86
85266;BME280;75676;49.522;19.724;2024-02-26T00:52:57;92956.72;;;2.90;83.76
85266;BME280;75676;49.522;19.724;2024-02-26T00:55:23;92962.66;;;2.91;83.75
85266;BME280;75676;49.522;19.724;2024-02-26T00:57:49;92963.94;;;2.67;84.05
85266;BME280;75676;49.522;19.724;2024-02-26T01:00:15;92958.00;;;2.66;84.33
85266;BME280;75676;49.522;19.724;2024-02-26T01:02:41;92963.84;;;2.54;84.96
85266;BME280;75676;49.522;19.724;2024-02-26T01:05:12;92970.03;;;2.44;84.58
85266;BME280;75676;49.522;19.724;2024-02-26T01:07:38;92964.47;;;2.26;84.84
85266;BME280;75676;49.522;19.724;2024-02-26T01:10:05;92962.00;;;2.19;85.84
85266;BME280;75676;49.522;19.724;2024-02-26T01:12:34;92966.94;;;2.13;85.81
85266;BME280;75676;49.522;19.724;2024-02-26T01:15:01;92965.47;;;2.12;85.46
85266;BME280;75676;49.522;19.724;2024-02-26T01:17:28;92968.22;;;1.85;85.39
85266;BME280;75676;49.522;19.724;2024-02-26T01:19:54;92966.28;;;1.89;84.88
85266;BME280;75676;49.522;19.724;2024-02-26T01:22:20;92970.91;;;1.82;84.71
85266;BME280;75676;49.522;19.724;2024-02-26T01:24:45;92976.78;;;1.66;85.01
85266;BME280;75676;49.522;19.724;2024-02-26T01:27:11;92969.84;;;1.59;85.17
85266;BME280;75676;49.522;19.724;2024-02-26T01:29:37;92967.69;;;1.54;85.42
85266;BME280;75676;49.522;19.724;2024-02-26T01:32:03;92971.81;;;1.52;85.06
85266;BME280;75676;49.522;19.724;2024-02-26T01:34:31;92967.88;;;1.44;86.72
85266;BME280;75676;49.522;19.724;2024-02-26T01:36:57;92963.69;;;1.50;86.29
85266;BME280;75676;49.522;19.724;2024-02-26T01:39:23;92964.72;;;1.33;86.94
85266;BME280;75676;49.522;19.724;2024-02-26T01:41:48;92966.94;;;1.34;86.02
85266;BME280;75676;49.522;19.724;2024-02-26T01:44:14;92969.91;;;1.13;85.69
85266;BME280;75676;49.522;19.724;2024-02-26T01:46:40;92969.16;;;1.12;86.78
85266;BME280;75676;49.522;19.724;2024-02-26T01:49:08;92968.31;;;0.96;87.24
85266;BME280;75676;49.522;19.724;2024-02-26T01:51:35;92961.00;;;1.10;87.48
85266;BME280;75676;49.522;19.724;2024-02-26T01:54:02;92962.38;;;1.18;86.56
85266;BME280;75676;49.522;19.724;2024-02-26T01:56:29;92964.13;;;1.02;87.77
85266;BME280;75676;49.522;19.724;2024-02-26T01:59:01;92962.19;;;1.06;87.07
85266;BME280;75676;49.522;19.724;2024-02-26T02:01:27;92960.13;;;0.97;86.98
85266;BME280;75676;49.522;19.724;2024-02-26T02:03:57;92968.75;;;0.91;86.46
85266;BME280;75676;49.522;19.724;2024-02-26T02:06:23;92965.41;;;0.90;86.51
85266;BME280;75676;49.522;19.724;2024-02-26T02:08:49;92971.97;;;0.98;86.66
85266;BME280;75676;49.522;19.724;2024-02-26T02:14:06;92973.38;;;0.79;88.51
85266;BME280;75676;49.522;19.724;2024-02-26T02:16:32;92970.94;;;0.92;88.36
85266;BME280;75676;49.522;19.724;2024-02-26T02:18:58;92974.56;;;0.98;88.88
85266;BME280;75676;49.522;19.724;2024-02-26T02:21:25;92977.06;;;0.82;89.41
85266;BME280;75676;49.522;19.724;2024-02-26T02:23:51;92977.06;;;0.82;89.32
85266;BME280;75676;49.522;19.724;2024-02-26T02:26:17;92974.13;;;0.80;89.78
85266;BME280;75676;49.522;19.724;2024-02-26T02:28:45;92978.53;;;0.83;89.60
85266;BME280;75676;49.522;19.724;2024-02-26T02:31:12;92983.06;;;0.79;89.28
85266;BME280;75676;49.522;19.724;2024-02-26T02:33:38;92983.66;;;0.63;89.57
85266;BME280;75676;49.522;19.724;2024-02-26T02:36:04;92983.94;;;0.69;89.27
85266;BME280;75676;49.522;19.724;2024-02-26T02:38:37;92983.88;;;0.72;89.28
85266;BME280;75676;49.522;19.724;2024-02-26T02:41:04;92985.81;;;0.68;88.83
85266;BME280;75676;49.522;19.724;2024-02-26T02:43:30;92979.50;;;0.69;89.26
85266;BME280;75676;49.522;19.724;2024-02-26T02:45:55;92977.13;;;0.78;89.30
85266;BME280;75676;49.522;19.724;2024-02-26T02:48:21;92964.72;;;0.63;89.46
85266;BME280;75676;49.522;19.724;2024-02-26T02:50:47;92964.03;;;0.59;88.46
85266;BME280;75676;49.522;19.724;2024-02-26T02:53:13;92966.09;;;0.44;89.02
85266;BME280;75676;49.522;19.724;2024-02-26T02:55:39;92964.50;;;0.50;88.48
85266;BME280;75676;49.522;19.724;2024-02-26T02:58:05;92972.75;;;0.45;87.58
85266;BME280;75676;49.522;19.724;2024-02-26T03:00:31;92974.63;;;0.45;85.60
85266;BME280;75676;49.522;19.724;2024-02-26T03:02:56;92974.72;;;0.37;85.52
85266;BME280;75676;49.522;19.724;2024-02-26T03:05:22;92969.63;;;0.30;86.10
85266;BME280;75676;49.522;19.724;2024-02-26T03:07:48;92969.81;;;0.16;87.08
85266;BME280;75676;49.522;19.724;2024-02-26T03:10:14;92970.34;;;0.31;87.48
85266;BME280;75676;49.522;19.724;2024-02-26T03:12:40;92971.53;;;0.26;88.96
85266;BME280;75676;49.522;19.724;2024-02-26T03:15:06;92972.34;;;0.20;89.94
85266;BME280;75676;49.522;19.724;2024-02-26T03:17:31;92964.41;;;0.30;90.41
85266;BME280;75676;49.522;19.724;2024-02-26T03:19:57;92964.34;;;0.37;90.42
85266;BME280;75676;49.522;19.724;2024-02-26T03:22:23;92971.25;;;0.48;90.38
85266;BME280;75676;49.522;19.724;2024-02-26T03:24:49;92974.91;;;0.50;87.61
85266;BME280;75676;49.522;19.724;2024-02-26T03:27:15;92963.09;;;0.46;88.22
85266;BME280;75676;49.522;19.724;2024-02-26T03:29:40;92965.84;;;0.35;88.95
85266;BME280;75676;49.522;19.724;2024-02-26T03:32:06;92963.63;;;0.33;89.29
85266;BME280;75676;49.522;19.724;2024-02-26T03:34:33;92962.03;;;0.43;88.08
85266;BME280;75676;49.522;19.724;2024-02-26T03:37:01;92963.38;;;0.51;87.63
85266;BME280;75676;49.522;19.724;2024-02-26T03:39:27;92955.94;;;0.53;86.48
85266;BME280;75676;49.522;19.724;2024-02-26T03:41:53;92960.50;;;0.46;86.81
85266;BME280;75676;49.522;19.724;2024-02-26T03:44:19;92943.09;;;0.43;86.50
85266;BME280;75676;49.522;19.724;2024-02-26T03:46:45;92941.38;;;0.32;87.37
85266;BME280;75676;49.522;19.724;2024-02-26T03:49:11;92937.75;;;0.26;87.73
85266;BME280;75676;49.522;19.724;2024-02-26T03:51:38;92941.38;;;0.32;87.75
85266;BME280;75676;49.522;19.724;2024-02-26T03:54:04;92941.47;;;0.25;87.47
85266;BME280;75676;49.522;19.724;2024-02-26T03:56:30;92938.97;;;0.18;87.66
85266;BME280;75676;49.522;19.724;2024-02-26T03:58:56;92943.63;;;0.30;87.97
85266;BME280;75676;49.522;19.724;2024-02-26T04:01:22;92946.81;;;0.15;88.33
85266;BME280;75676;49.522;19.724;2024-02-26T04:03:48;92935.63;;;0.18;89.31
85266;BME280;75676;49.522;19.724;2024-02-26T04:06:13;92936.66;;;0.24;88.85
85266;BME280;75676;49.522;19.724;2024-02-26T04:08:45;92932.69;;;0.16;88.60
85266;BME280;75676;49.522;19.724;2024-02-26T04:11:10;92939.34;;;0.17;87.15
85266;BME280;75676;49.522;19.724;2024-02-26T04:13:37;92926.19;;;0.00;87.33
85266;BME280;75676;49.522;19.724;2024-02-26T04:16:06;92934.69;;;0.05;87.44
85266;BME280;75676;49.522;19.724;2024-02-26T04:18:32;92922.66;;;-0.13;87.06
85266;BME280;75676;49.522;19.724;2024-02-26T04:20:58;92934.59;;;-0.19;87.85
85266;BME280;75676;49.522;19.724;2024-02-26T04:23:24;92938.56;;;-0.07;88.06
85266;BME280;75676;49.522;19.724;2024-02-26T04:25:50;92937.59;;;-0.20;88.21
85266;BME280;75676;49.522;19.724;2024-02-26T04:28:19;92931.94;;;-0.12;88.23
85266;BME280;75676;49.522;19.724;2024-02-26T04:30:47;92925.63;;;-0.14;88.67
85266;BME280;75676;49.522;19.724;2024-02-26T04:33:13;92935.13;;;-0.01;89.76
85266;BME280;75676;49.522;19.724;2024-02-26T04:35:39;92931.97;;;0.12;89.30
85266;BME280;75676;49.522;19.724;2024-02-26T04:38:05;92927.22;;;0.07;89.23
85266;BME280;75676;49.522;19.724;2024-02-26T04:40:31;92926.50;;;0.06;89.05
85266;BME280;75676;49.522;19.724;2024-02-26T04:42:57;92924.94;;;0.12;88.47
85266;BME280;75676;49.522;19.724;2024-02-26T04:45:23;92923.72;;;0.20;86.88
85266;BME280;75676;49.522;19.724;2024-02-26T04:47:49;92910.50;;;0.08;86.46
85266;BME280;75676;49.522;19.724;2024-02-26T04:50:15;92910.75;;;-0.10;86.95
85266;BME280;75676;49.522;19.724;2024-02-26T04:52:41;92915.25;;;-0.14;88.09
85266;BME280;75676;49.522;19.724;2024-02-26T04:55:10;92917.53;;;-0.16;87.67
85266;BME280;75676;49.522;19.724;2024-02-26T04:57:36;92917.59;;;-0.23;87.07
85266;BME280;75676;49.522;19.724;2024-02-26T05:00:03;92920.56;;;-0.25;87.10
85266;BME280;75676;49.522;19.724;2024-02-26T05:02:30;92917.75;;;-0.37;87.88
85266;BME280;75676;49.522;19.724;2024-02-26T05:04:59;92914.13;;;-0.13;88.39
85266;BME280;75676;49.522;19.724;2024-02-26T05:07:25;92919.75;;;-0.18;88.09
85266;BME280;75676;49.522;19.724;2024-02-26T05:09:51;92930.69;;;0.00;87.92
85266;BME280;75676;49.522;19.724;2024-02-26T05:12:17;92929.06;;;0.10;87.39
85266;BME280;75676;49.522;19.724;2024-02-26T05:14:43;92932.63;;;0.19;88.06
85266;BME280;75676;49.522;19.724;2024-02-26T05:17:09;92931.91;;;0.19;87.23
85266;BME280;75676;49.522;19.724;2024-02-26T05:19:35;92941.91;;;0.20;87.48
85266;BME280;75676;49.522;19.724;2024-02-26T05:22:01;92922.97;;;0.20;88.22
85266;BME280;75676;49.522;19.724;2024-02-26T05:24:27;92938.81;;;0.29;89.28
85266;BME280;75676;49.522;19.724;2024-02-26T05:26:53;92935.03;;;0.33;88.31
85266;BME280;75676;49.522;19.724;2024-02-26T05:29:21;92910.59;;;0.27;88.31
85266;BME280;75676;49.522;19.724;2024-02-26T05:31:46;92914.81;;;0.21;88.57
85266;BME280;75676;49.522;19.724;2024-02-26T05:34:12;92913.41;;;0.13;89.13
85266;BME280;75676;49.522;19.724;2024-02-26T05:36:38;92905.03;;;0.02;88.92
85266;BME280;75676;49.522;19.724;2024-02-26T05:39:04;92896.91;;;0.00;89.03
85266;BME280;75676;49.522;19.724;2024-02-26T05:41:31;92900.38;;;0.17;88.40
85266;BME280;75676;49.522;19.724;2024-02-26T05:43:56;92903.66;;;0.21;88.46
85266;BME280;75676;49.522;19.724;2024-02-26T05:46:22;92917.72;;;0.23;86.37
85266;BME280;75676;49.522;19.724;2024-02-26T05:48:50;92906.88;;;0.28;87.48
85266;BME280;75676;49.522;19.724;2024-02-26T05:51:17;92891.69;;;0.27;88.39
85266;BME280;75676;49.522;19.724;2024-02-26T05:53:43;92918.06;;;0.52;88.61
85266;BME280;75676;49.522;19.724;2024-02-26T05:56:09;92923.34;;;0.45;88.35
85266;BME280;75676;49.522;19.724;2024-02-26T05:58:35;92910.25;;;0.52;88.18
85266;BME280;75676;49.522;19.724;2024-02-26T06:01:01;92908.63;;;0.62;89.74
85266;BME280;75676;49.522;19.724;2024-02-26T06:03:27;92917.91;;;0.63;90.40
85266;BME280;75676;49.522;19.724;2024-02-26T06:05:53;92912.38;;;0.84;90.86
85266;BME280;75676;49.522;19.724;2024-02-26T06:08:19;92917.50;;;1.11;90.58
85266;BME280;75676;49.522;19.724;2024-02-26T06:10:45;92912.84;;;1.22;88.94
85266;BME280;75676;49.522;19.724;2024-02-26T06:13:11;92913.22;;;1.20;88.03
85266;BME280;75676;49.522;19.724;2024-02-26T06:15:37;92912.19;;;1.18;88.44
85266;BME280;75676;49.522;19.724;2024-02-26T06:18:02;92919.78;;;1.29;89.00
85266;BME280;75676;49.522;19.724;2024-02-26T06:20:28;92920.00;;;1.38;88.83
85266;BME280;75676;49.522;19.724;2024-02-26T06:22:54;92925.19;;;1.38;87.81
85266;BME280;75676;49.522;19.724;2024-02-26T06:25:20;92927.50;;;1.55;88.86
85266;BME280;75676;49.522;19.724;2024-02-26T06:27:45;92926.41;;;1.53;88.57
85266;BME280;75676;49.522;19.724;2024-02-26T06:30:11;92924.59;;;1.69;88.70
85266;BME280;75676;49.522;19.724;2024-02-26T06:32:38;92919.06;;;1.87;87.78
85266;BME280;75676;49.522;19.724;2024-02-26T06:35:04;92927.09;;;2.13;86.79
85266;BME280;75676;49.522;19.724;2024-02-26T06:37:34;92923.56;;;2.39;84.86
85266;BME280;75676;49.522;19.724;2024-02-26T06:40:00;92929.88;;;2.58;83.90
85266;BME280;75676;49.522;19.724;2024-02-26T06:42:30;92938.00;;;2.92;83.58
85266;BME280;75676;49.522;19.724;2024-02-26T06:44:56;92938.06;;;3.21;82.74
85266;BME280;75676;49.522;19.724;2024-02-26T06:47:22;92941.63;;;3.43;82.00
85266;BME280;75676;49.522;19.724;2024-02-26T06:49:48;92940.41;;;3.76;80.69
85266;BME280;75676;49.522;19.724;2024-02-26T06:52:14;92940.91;;;3.84;81.66
85266;BME280;75676;49.522;19.724;2024-02-26T06:54:40;92948.69;;;3.88;83.04
85266;BME280;75676;49.522;19.724;2024-02-26T06:57:05;92940.69;;;4.20;82.22
85266;BME280;75676;49.522;19.724;2024-02-26T06:59:31;92941.44;;;4.20;81.70
85266;BME280;75676;49.522;19.724;2024-02-26T07:01:57;92943.63;;;4.35;82.65
85266;BME280;75676;49.522;19.724;2024-02-26T07:04:23;92950.25;;;4.52;82.47
85266;BME280;75676;49.522;19.724;2024-02-26T07:06:48;92949.28;;;4.71;80.92
85266;BME280;75676;49.522;19.724;2024-02-26T07:09:14;92947.91;;;4.92;80.31
85266;BME280;75676;49.522;19.724;2024-02-26T07:11:42;92946.38;;;5.29;79.91
85266;BME280;75676;49.522;19.724;2024-02-26T07:14:09;92956.63;;;5.70;78.51
85266;BME280;75676;49.522;19.724;2024-02-26T07:16:36;92952.19;;;5.80;78.46
85266;BME280;75676;49.522;19.724;2024-02-26T07:19:02;92957.41;;;5.80;78.20
85266;BME280;75676;49.522;19.724;2024-02-26T07:21:28;92957.50;;;5.89;78.31
85266;BME280;75676;49.522;19.724;2024-02-26T07:23:54;92951.78;;;6.03;78.41
85266;BME280;75676;49.522;19.724;2024-02-26T07:26:20;92961.13;;;6.04;78.37
85266;BME280;75676;49.522;19.724;2024-02-26T07:28:46;92956.56;;;6.26;77.08
85266;BME280;75676;49.522;19.724;2024-02-26T07:31:12;92960.75;;;5.93;78.94
85266;BME280;75676;49.522;19.724;2024-02-26T07:33:38;92958.28;;;6.42;76.90
85266;BME280;75676;49.522;19.724;2024-02-26T07:36:04;92944.97;;;7.89;71.81
85266;BME280;75676;49.522;19.724;2024-02-26T07:38:30;92951.97;;;9.37;66.67
85266;BME280;75676;49.522;19.724;2024-02-26T07:40:56;92953.63;;;10.84;62.08
85266;BME280;75676;49.522;19.724;2024-02-26T07:43:22;92952.34;;;11.70;58.40
85266;BME280;75676;49.522;19.724;2024-02-26T07:45:48;92953.22;;;11.06;59.86
85266;BME280;75676;49.522;19.724;2024-02-26T07:48:14;92956.19;;;11.69;57.69
85266;BME280;75676;49.522;19.724;2024-02-26T07:50:40;92958.66;;;13.38;52.54
85266;BME280;75676;49.522;19.724;2024-02-26T07:53:08;92958.53;;;13.64;49.89
85266;BME280;75676;49.522;19.724;2024-02-26T07:55:34;92954.88;;;12.51;53.01
85266;BME280;75676;49.522;19.724;2024-02-26T07:57:59;92954.34;;;12.21;55.27
85266;BME280;75676;49.522;19.724;2024-02-26T08:00:26;92952.72;;;11.63;56.56
85266;BME280;75676;49.522;19.724;2024-02-26T08:02:51;92967.84;;;10.87;58.29
85266;BME280;75676;49.522;19.724;2024-02-26T08:05:17;92958.84;;;10.64;59.41
85266;BME280;75676;49.522;19.724;2024-02-26T08:07:43;92966.31;;;10.66;60.81
85266;BME280;75676;49.522;19.724;2024-02-26T08:10:09;92959.94;;;10.43;60.07
85266;BME280;75676;49.522;19.724;2024-02-26T08:12:36;92969.41;;;9.82;62.42
85266;BME280;75676;49.522;19.724;2024-02-26T08:15:02;92954.72;;;9.42;64.58
85266;BME280;75676;49.522;19.724;2024-02-26T08:17:28;92965.97;;;9.28;65.52
85266;BME280;75676;49.522;19.724;2024-02-26T08:19:54;92958.81;;;9.43;64.94
85266;BME280;75676;49.522;19.724;2024-02-26T08:22:20;92964.81;;;9.20;65.72
85266;BME280;75676;49.522;19.724;2024-02-26T08:24:46;92963.47;;;9.48;65.50
85266;BME280;75676;49.522;19.724;2024-02-26T08:27:11;92958.94;;;9.25;66.88
85266;BME280;75676;49.522;19.724;2024-02-26T08:29:37;92967.06;;;9.36;66.53
85266;BME280;75676;49.522;19.724;2024-02-26T08:32:03;92958.97;;;9.16;66.98
85266;BME280;75676;49.522;19.724;2024-02-26T08:34:30;92961.84;;;9.75;65.35
85266;BME280;75676;49.522;19.724;2024-02-26T08:36:55;92957.09;;;10.17;64.60
85266;BME280;75676;49.522;19.724;2024-02-26T08:39:21;92949.03;;;9.97;63.43
85266;BME280;75676;49.522;19.724;2024-02-26T08:41:47;92966.16;;;9.63;65.51
85266;BME280;75676;49.522;19.724;2024-02-26T08:44:13;92951.59;;;10.06;64.85
85266;BME280;75676;49.522;19.724;2024-02-26T08:46:38;92950.09;;;10.43;63.26
85266;BME280;75676;49.522;19.724;2024-02-26T08:49:04;92964.94;;;10.56;63.38
85266;BME280;75676;49.522;19.724;2024-02-26T08:51:30;92959.38;;;10.83;61.43
85266;BME280;75676;49.522;19.724;2024-02-26T08:53:56;92965.16;;;11.02;61.78
85266;BME280;75676;49.522;19.724;2024-02-26T08:56:22;92965.03;;;10.61;62.70
85266;BME280;75676;49.522;19.724;2024-02-26T08:58:47;92969.50;;;11.74;59.96
85266;BME280;75676;49.522;19.724;2024-02-26T09:01:19;92968.31;;;11.75;59.37
85266;BME280;75676;49.522;19.724;2024-02-26T09:03:45;92977.06;;;11.26;59.36
85266;BME280;75676;49.522;19.724;2024-02-26T09:06:11;92976.22;;;11.00;60.64
85266;BME280;75676;49.522;19.724;2024-02-26T09:08:40;92959.28;;;10.77;61.14
85266;BME280;75676;49.522;19.724;2024-02-26T09:11:06;92968.34;;;10.41;62.77
85266;BME280;75676;49.522;19.724;2024-02-26T09:13:32;92963.22;;;10.23;63.63
85266;BME280;75676;49.522;19.724;2024-02-26T09:15:58;92971.44;;;10.01;64.19
85266;BME280;75676;49.522;19.724;2024-02-26T09:18:24;92967.34;;;9.62;65.49
85266;BME280;75676;49.522;19.724;2024-02-26T09:20:50;92969.25;;;9.61;65.71
85266;BME280;75676;49.522;19.724;2024-02-26T09:23:16;92967.00;;;9.21;66.71
85266;BME280;75676;49.522;19.724;2024-02-26T09:25:42;92966.09;;;9.24;66.58
85266;BME280;75676;49.522;19.724;2024-02-26T09:28:08;92955.69;;;9.54;66.74
85266;BME280;75676;49.522;19.724;2024-02-26T09:30:34;92959.38;;;9.47;66.33
85266;BME280;75676;49.522;19.724;2024-02-26T09:32:59;92964.84;;;9.44;66.82
85266;BME280;75676;49.522;19.724;2024-02-26T09:35:25;92956.06;;;9.38;67.56
85266;BME280;75676;49.522;19.724;2024-02-26T09:37:52;92955.44;;;9.66;66.56
85266;BME280;75676;49.522;19.724;2024-02-26T09:40:19;92964.44;;;9.60;66.52
85266;BME280;75676;49.522;19.724;2024-02-26T09:42:45;92963.75;;;9.74;66.57
85266;BME280;75676;49.522;19.724;2024-02-26T09:45:18;92960.13;;;9.86;66.28
85266;BME280;75676;49.522;19.724;2024-02-26T09:47:47;92961.69;;;9.93;66.01
85266;BME280;75676;49.522;19.724;2024-02-26T09:50:14;92968.19;;;10.06;65.67
85266;BME280;75676;49.522;19.724;2024-02-26T09:52:43;92975.28;;;10.15;65.36
85266;BME280;75676;49.522;19.724;2024-02-26T09:55:09;92973.78;;;9.85;66.05
85266;BME280;75676;49.522;19.724;2024-02-26T09:57:37;92969.81;;;9.65;66.14
85266;BME280;75676;49.522;19.724;2024-02-26T10:00:04;92967.25;;;9.33;67.07
85266;BME280;75676;49.522;19.724;2024-02-26T10:02:33;92972.09;;;9.73;67.12
85266;BME280;75676;49.522;19.724;2024-02-26T10:05:02;92975.38;;;9.67;68.20
85266;BME280;75676;49.522;19.724;2024-02-26T10:07:31;92973.28;;;10.10;65.68
85266;BME280;75676;49.522;19.724;2024-02-26T10:09:57;92968.00;;;10.10;66.05
85266;BME280;75676;49.522;19.724;2024-02-26T10:12:23;92970.41;;;10.81;65.40
85266;BME280;75676;49.522;19.724;2024-02-26T10:14:51;92969.50;;;11.54;62.25
85266;BME280;75676;49.522;19.724;2024-02-26T10:17:19;92963.47;;;11.74;60.63
85266;BME280;75676;49.522;19.724;2024-02-26T10:19:45;92975.03;;;11.56;61.07
85266;BME280;75676;49.522;19.724;2024-02-26T10:22:11;92974.97;;;11.51;61.49
85266;BME280;75676;49.522;19.724;2024-02-26T10:24:37;92972.38;;;11.36;63.09
85266;BME280;75676;49.522;19.724;2024-02-26T10:27:03;92971.41;;;11.19;62.63
85266;BME280;75676;49.522;19.724;2024-02-26T10:29:29;92973.97;;;11.13;62.65
85266;BME280;75676;49.522;19.724;2024-02-26T10:31:55;92981.34;;;10.89;63.59
85266;BME280;75676;49.522;19.724;2024-02-26T10:34:21;92977.44;;;10.55;64.99
85266;BME280;75676;49.522;19.724;2024-02-26T10:36:49;92982.09;;;10.45;64.36
85266;BME280;75676;49.522;19.724;2024-02-26T10:39:15;92978.84;;;10.12;66.32
85266;BME280;75676;49.522;19.724;2024-02-26T10:41:44;92976.41;;;9.85;66.73
85266;BME280;75676;49.522;19.724;2024-02-26T10:44:11;92969.69;;;10.22;66.88
85266;BME280;75676;49.522;19.724;2024-02-26T10:46:41;92971.13;;;10.38;66.27
85266;BME280;75676;49.522;19.724;2024-02-26T10:49:14;92976.97;;;10.42;64.84
85266;BME280;75676;49.522;19.724;2024-02-26T10:51:44;92980.44;;;10.33;64.17
85266;BME280;75676;49.522;19.724;2024-02-26T10:54:15;92979.53;;;10.36;64.94
85266;BME280;75676;49.522;19.724;2024-02-26T10:56:42;92981.19;;;10.10;65.24
85266;BME280;75676;49.522;19.724;2024-02-26T10:59:11;92976.44;;;9.99;65.73
85266;BME280;75676;49.522;19.724;2024-02-26T11:01:37;92970.50;;;9.90;66.35
85266;BME280;75676;49.522;19.724;2024-02-26T11:04:06;92975.44;;;9.97;65.63
85266;BME280;75676;49.522;19.724;2024-02-26T11:06:32;92972.59;;;9.86;65.46
85266;BME280;75676;49.522;19.724;2024-02-26T11:09:01;92967.81;;;10.14;64.89
85266;BME280;75676;49.522;19.724;2024-02-26T11:11:29;92968.28;;;10.12;64.90
85266;BME280;75676;49.522;19.724;2024-02-26T11:13:56;92968.78;;;10.25;64.81
85266;BME280;75676;49.522;19.724;2024-02-26T11:16:23;92969.44;;;10.11;64.61
85266;BME280;75676;49.522;19.724;2024-02-26T11:18:51;92973.75;;;10.08;64.57
85266;BME280;75676;49.522;19.724;2024-02-26T11:21:21;92975.13;;;9.80;65.89
85266;BME280;75676;49.522;19.724;2024-02-26T11:24:06;92975.06;;;9.89;65.46
85266;BME280;75676;49.522;19.724;2024-02-26T11:26:35;92975.41;;;9.82;66.12
85266;BME280;75676;49.522;19.724;2024-02-26T11:29:04;92979.81;;;10.00;65.44
85266;BME280;75676;49.522;19.724;2024-02-26T11:31:33;92975.53;;;9.88;65.25
85266;BME280;75676;49.522;19.724;2024-02-26T11:33:59;92979.78;;;9.85;66.02
85266;BME280;75676;49.522;19.724;2024-02-26T11:36:25;92976.63;;;9.96;65.17
85266;BME280;75676;49.522;19.724;2024-02-26T11:38:51;92979.25;;;9.96;65.37
85266;BME280;75676;49.522;19.724;2024-02-26T11:41:20;92980.63;;;9.91;66.36
85266;BME280;75676;49.522;19.724;2024-02-26T11:44:02;92973.44;;;9.92;65.74
85266;BME280;75676;49.522;19.724;2024-02-26T11:46:32;92978.63;;;9.62;66.98
85266;BME280;75676;49.522;19.724;2024-02-26T11:51:27;92980.78;;;9.49;67.31
85266;BME280;75676;49.522;19.724;2024-02-26T11:53:53;92974.59;;;9.52;67.64
85266;BME280;75676;49.522;19.724;2024-02-26T11:56:21;92975.63;;;9.55;67.89
85266;BME280;75676;49.522;19.724;2024-02-26T11:59:05;92974.91;;;9.45;68.35
85266;BME280;75676;49.522;19.724;2024-02-26T12:01:41;92967.34;;;9.62;67.32
85266;BME280;75676;49.522;19.724;2024-02-26T12:04:12;92963.09;;;9.64;68.63
85266;BME280;75676;49.522;19.724;2024-02-26T12:09:16;92966.78;;;9.58;68.12
85266;BME280;75676;49.522;19.724;2024-02-26T12:11:56;92968.28;;;9.74;67.49
85266;BME280;75676;49.522;19.724;2024-02-26T12:14:25;92965.03;;;9.93;66.96
85266;BME280;75676;49.522;19.724;2024-02-26T12:16:52;92957.22;;;9.99;66.96
85266;BME280;75676;49.522;19.724;2024-02-26T12:19:18;92962.50;;;9.99;66.93
85266;BME280;75676;49.522;19.724;2024-02-26T12:21:44;92960.38;;;9.74;68.52
85266;BME280;75676;49.522;19.724;2024-02-26T12:24:14;92960.88;;;9.87;68.16
85266;BME280;75676;49.522;19.724;2024-02-26T12:26:41;92961.19;;;9.80;67.54
85266;BME280;75676;49.522;19.724;2024-02-26T12:29:07;92958.84;;;9.82;68.13
85266;BME280;75676;49.522;19.724;2024-02-26T12:31:34;92962.72;;;10.10;66.61
85266;BME280;75676;49.522;19.724;2024-02-26T12:34:03;92963.56;;;10.16;68.02
85266;BME280;75676;49.522;19.724;2024-02-26T12:36:34;92961.97;;;10.09;66.60
85266;BME280;75676;49.522;19.724;2024-02-26T12:39:04;92964.50;;;10.28;66.47
85266;BME280;75676;49.522;19.724;2024-02-26T12:41:32;92962.03;;;10.24;65.86
85266;BME280;75676;49.522;19.724;2024-02-26T12:43:58;92982.25;;;9.89;66.76
85266;BME280;75676;49.522;19.724;2024-02-26T12:46:24;92971.75;;;9.80;67.94
85266;BME280;75676;49.522;19.724;2024-02-26T12:48:50;92969.63;;;9.93;67.66
85266;BME280;75676;49.522;19.724;2024-02-26T12:51:16;92970.09;;;10.06;67.06
85266;BME280;75676;49.522;19.724;2024-02-26T12:53:44;92964.16;;;10.11;66.53
85266;BME280;75676;49.522;19.724;2024-02-26T12:56:11;92966.59;;;10.38;65.61
85266;BME280;75676;49.522;19.724;2024-02-26T12:58:41;92968.25;;;10.50;65.90
85266;BME280;75676;49.522;19.724;2024-02-26T13:01:07;92972.50;;;10.33;65.81
85266;BME280;75676;49.522;19.724;2024-02-26T13:03:39;92972.50;;;10.33;66.34